createdAt,value
2023-02-23T00:02:09.517Z,1007.9
2023-02-23T00:04:47.580Z,1008.0
2023-02-23T00:10:46.052Z,1008.0
2023-02-23T00:17:32.659Z,1008.0
2023-02-23T00:20:09.719Z,1008.0
2023-02-23T00:24:53.113Z,1008.0
2023-02-23T00:30:25.139Z,1007.9
2023-02-23T00:35:07.547Z,1007.9
2023-02-23T00:40:13.920Z,1008.0
2023-02-23T00:45:20.287Z,1008.0
2023-02-23T00:51:40.410Z,1008.0
2023-02-23T00:55:34.624Z,1007.9
2023-02-23T01:00:41.037Z,1008.0
2023-02-23T01:05:47.415Z,1008.0
2023-02-23T01:10:53.979Z,1008.1
2023-02-23T01:21:00.725Z,1008.1
2023-02-23T01:21:06.754Z,1008.1
2023-02-23T01:26:13.282Z,1008.0
2023-02-23T01:31:43.815Z,1008.0
2023-02-23T01:36:25.928Z,1008.0
2023-02-23T01:41:32.331Z,1008.0
2023-02-23T01:47:02.882Z,1008.0
2023-02-23T01:52:45.345Z,1008.0
2023-02-23T01:56:51.632Z,1008.0
2023-02-23T02:01:58.074Z,1008.0
2023-02-23T02:07:04.380Z,1008.0
2023-02-23T02:12:10.776Z,1008.0
2023-02-23T02:17:17.144Z,1008.0
2023-02-23T02:22:23.529Z,1007.9
2023-02-23T02:27:30.002Z,1007.9
2023-02-23T02:32:55.369Z,1007.9
2023-02-23T02:37:42.710Z,1007.9
2023-02-23T02:43:13.175Z,1007.9
2023-02-23T02:48:39.576Z,1007.9
2023-02-23T02:53:46.003Z,1007.9
2023-02-23T03:00:28.724Z,1007.9
2023-02-23T03:03:58.781Z,1007.9
2023-02-23T03:09:05.329Z,1007.9
2023-02-23T03:13:51.655Z,1007.9
2023-02-23T03:18:34.045Z,1008.0
2023-02-23T03:24:02.776Z,1008.0
2023-02-23T03:28:46.777Z,1008.0
2023-02-23T03:35:17.371Z,1008.0
2023-02-23T03:39:19.572Z,1008.0
2023-02-23T03:44:05.907Z,1008.0
2023-02-23T03:49:12.286Z,1007.9
2023-02-23T03:54:18.845Z,1008.0
2023-02-23T03:59:49.214Z,1008.0
2023-02-23T04:04:55.617Z,1008.1
2023-02-23T04:10:12.044Z,1008.1
2023-02-23T04:15:19.435Z,1008.1
2023-02-23T04:20:49.929Z,1008.1
2023-02-23T04:25:32.245Z,1008.2
2023-02-23T04:31:50.801Z,1008.1
2023-02-23T04:36:45.104Z,1008.2
2023-02-23T04:42:03.538Z,1008.2
2023-02-23T04:46:21.898Z,1008.2
2023-02-23T04:51:04.231Z,1008.2
2023-02-23T04:56:10.656Z,1008.3
2023-02-23T05:01:37.332Z,1008.3
2023-02-23T05:06:23.376Z,1008.3
2023-02-23T05:11:29.753Z,1008.4
2023-02-23T05:16:36.249Z,1008.4
2023-02-23T05:26:49.099Z,1008.4
2023-02-23T05:32:19.513Z,1008.4
2023-02-23T05:37:21.897Z,1008.4
2023-02-23T05:43:08.385Z,1008.4
2023-02-23T05:47:14.632Z,1008.4
2023-02-23T05:52:22.187Z,1008.4
2023-02-23T05:57:48.557Z,1008.4
2023-02-23T06:02:58.975Z,1008.4
2023-02-23T06:08:01.370Z,1008.4
2023-02-23T06:13:47.737Z,1008.5
2023-02-23T06:17:54.097Z,1008.6
2023-02-23T06:23:00.608Z,1008.6
2023-02-23T06:28:07.082Z,1008.6
2023-02-23T06:33:57.551Z,1008.7
2023-02-23T06:38:19.867Z,1008.7
2023-02-23T06:43:46.278Z,1008.8
2023-02-23T06:48:32.639Z,1008.7
2023-02-23T06:53:39.030Z,1008.8
2023-02-23T06:58:45.398Z,1008.8
2023-02-23T07:03:51.910Z,1008.9
2023-02-23T07:08:58.427Z,1008.9
2023-02-23T07:14:28.704Z,1009.0
2023-02-23T07:19:11.027Z,1009.0
2023-02-23T07:25:29.580Z,1009.1
2023-02-23T07:29:47.818Z,1009.2
2023-02-23T07:34:30.151Z,1009.3
2023-02-23T07:39:36.528Z,1009.2
2023-02-23T07:45:55.148Z,1009.2
2023-02-23T07:49:49.453Z,1009.3
2023-02-23T07:54:55.822Z,1009.4
2023-02-23T08:00:06.221Z,1009.4
2023-02-23T08:05:08.740Z,1009.6
2023-02-23T08:10:14.988Z,1009.6
2023-02-23T08:15:45.420Z,1009.6
2023-02-23T08:20:27.780Z,1009.6
2023-02-23T08:25:34.149Z,1009.6
2023-02-23T08:31:52.815Z,1009.7
2023-02-23T08:39:19.331Z,1009.7
2023-02-23T08:40:53.267Z,1009.7
2023-02-23T08:46:59.753Z,1009.7
2023-02-23T08:51:30.084Z,1009.9
2023-02-23T08:56:12.430Z,1009.8
2023-02-23T09:02:31.499Z,1009.8
2023-02-23T09:07:38.021Z,1009.9
2023-02-23T09:11:32.301Z,1009.9
2023-02-23T09:17:38.772Z,1009.9
2023-02-23T09:22:05.058Z,1009.9
2023-02-23T09:26:51.425Z,1010.0
2023-02-23T09:31:58.002Z,1010.0
2023-02-23T09:37:04.246Z,1010.1
2023-02-23T09:42:10.787Z,1010.1
2023-02-23T09:47:41.293Z,1010.1
2023-02-23T09:53:35.755Z,1010.2
2023-02-23T09:57:30.066Z,1010.2
2023-02-23T10:02:56.423Z,1010.3
2023-02-23T10:07:42.790Z,1010.2
2023-02-23T10:12:49.211Z,1010.2
2023-02-23T10:17:55.715Z,1010.3
2023-02-23T10:23:02.264Z,1010.3
2023-02-23T10:29:21.680Z,1010.3
2023-02-23T10:34:38.045Z,1010.3
2023-02-23T10:48:24.522Z,1010.3
2023-02-23T10:51:31.551Z,1010.3
2023-02-23T11:10:45.937Z,1010.5
2023-02-23T11:23:46.366Z,1010.4
2023-02-23T11:34:55.542Z,1010.3
2023-02-23T11:45:03.796Z,1010.3
2023-02-23T11:49:25.024Z,1010.3
2023-02-23T11:54:58.304Z,1010.4
2023-02-23T12:00:00.630Z,1010.4
2023-02-23T12:04:47.764Z,1010.3
2023-02-23T12:09:54.054Z,1010.4
2023-02-23T12:15:00.487Z,1010.4
2023-02-23T12:20:35.778Z,1010.4
2023-02-23T12:25:18.113Z,1010.4
2023-02-23T12:30:24.647Z,1010.4
2023-02-23T12:35:31.581Z,1010.3
2023-02-23T12:51:34.914Z,1010.4
2023-02-23T12:56:00.050Z,1010.5
2023-02-23T12:56:20.487Z,1010.4
2023-02-23T13:02:30.667Z,1010.5
2023-02-23T13:06:12.878Z,1010.5
2023-02-23T13:12:19.487Z,1010.4
2023-02-23T13:17:39.032Z,1010.4
2023-02-23T13:21:57.317Z,1010.5
2023-02-23T13:26:39.722Z,1010.6
2023-02-23T13:34:38.499Z,1010.6
2023-02-23T13:42:45.168Z,1010.6
2023-02-23T13:47:07.680Z,1010.5
2023-02-23T13:52:58.456Z,1010.4
2023-02-23T13:58:20.666Z,1010.5
2023-02-23T14:02:27.182Z,1010.4
2023-02-23T14:07:53.353Z,1010.5
2023-02-23T14:12:59.819Z,1010.5
2023-02-23T14:17:49.825Z,1010.6
2023-02-23T14:22:57.343Z,1010.6
2023-02-23T14:29:03.934Z,1010.7
2023-02-23T14:33:34.153Z,1010.7
2023-02-23T14:38:16.467Z,1010.7
2023-02-23T14:43:22.848Z,1010.6
2023-02-23T14:48:29.262Z,1010.6
2023-02-23T14:53:59.635Z,1010.7
2023-02-23T15:01:30.374Z,1010.6
2023-02-23T15:03:48.379Z,1010.6
2023-02-23T15:08:54.732Z,1010.6
2023-02-23T15:14:01.096Z,1010.5
2023-02-23T15:19:51.602Z,1010.5
2023-02-23T15:24:33.918Z,1010.5
2023-02-23T15:29:44.312Z,1010.5
2023-02-23T15:34:26.709Z,1010.5
2023-02-23T15:40:57.270Z,1010.4
2023-02-23T15:45:51.644Z,1010.4
2023-02-23T15:50:36.491Z,1010.5
2023-02-23T15:54:52.360Z,1010.5
2023-02-23T15:59:58.754Z,1010.5
2023-02-23T16:05:05.097Z,1010.4
2023-02-23T16:10:11.510Z,1010.5
2023-02-23T16:15:41.959Z,1010.5
2023-02-23T16:20:24.264Z,1010.5
2023-02-23T16:25:54.696Z,1010.6
2023-02-23T16:31:37.307Z,1010.6
2023-02-23T16:35:43.428Z,1010.6
2023-02-23T16:40:49.864Z,1010.6
2023-02-23T16:45:56.191Z,1010.7
2023-02-23T16:51:37.686Z,1010.6
2023-02-23T16:57:05.045Z,1010.7
2023-02-23T17:01:51.404Z,1010.6
2023-02-23T17:06:57.945Z,1010.8
2023-02-23T17:12:04.179Z,1010.7
2023-02-23T17:17:10.589Z,1010.7
2023-02-23T17:22:16.965Z,1010.8
2023-02-23T17:27:43.352Z,1010.8
2023-02-23T17:32:29.873Z,1011.1
2023-02-23T17:37:36.127Z,1011.1
2023-02-23T17:42:42.483Z,1011.2
2023-02-23T17:50:09.125Z,1011.2
2023-02-23T17:53:19.297Z,1011.2
2023-02-23T17:58:05.343Z,1011.3
2023-02-23T18:03:11.771Z,1011.4
2023-02-23T18:08:42.188Z,1011.5
2023-02-23T18:13:24.542Z,1011.5
2023-02-23T18:18:54.927Z,1011.5
2023-02-23T18:23:37.243Z,1011.6
2023-02-23T18:33:44.248Z,1011.5
2023-02-23T18:33:50.231Z,1011.6
2023-02-23T18:38:56.613Z,1011.6
2023-02-23T18:46:51.450Z,1011.6
2023-02-23T18:49:53.573Z,1011.6
2023-02-23T18:54:15.753Z,1011.7
2023-02-23T19:00:46.378Z,1011.7
2023-02-23T19:05:40.717Z,1011.8
2023-02-23T19:10:18.961Z,1011.8
2023-02-23T19:19:47.649Z,1011.8
2023-02-23T19:24:54.080Z,1011.8
2023-02-23T19:30:00.440Z,1011.9
2023-02-23T19:35:06.814Z,1011.8
2023-02-23T19:40:37.294Z,1011.7
2023-02-23T19:45:19.583Z,1011.8
2023-02-23T19:51:12.060Z,1011.7
2023-02-23T20:01:43.914Z,1011.7
2023-02-23T20:06:52.284Z,1011.6
2023-02-23T20:13:08.800Z,1011.7
2023-02-23T20:17:32.146Z,1011.8
2023-02-23T20:22:38.515Z,1011.8
2023-02-23T20:28:05.092Z,1011.8
2023-02-23T20:32:51.531Z,1011.9
2023-02-23T20:38:21.969Z,1011.9
2023-02-23T20:44:16.456Z,1011.9
2023-02-23T20:48:10.769Z,1011.8
2023-02-23T20:53:21.820Z,1011.7
2023-02-23T20:58:28.299Z,1011.8
2023-02-23T21:03:34.794Z,1011.8
2023-02-23T21:13:40.428Z,1011.7
2023-02-23T21:13:46.448Z,1011.7
2023-02-23T21:19:13.931Z,1011.7
2023-02-23T21:24:04.909Z,1011.7
2023-02-23T21:29:31.443Z,1011.6
2023-02-23T21:34:41.760Z,1011.6
2023-02-23T21:39:44.240Z,1011.5
2023-02-23T21:44:50.604Z,1011.5
2023-02-23T21:50:01.047Z,1011.5
2023-02-23T21:54:43.462Z,1011.4
2023-02-23T21:59:49.853Z,1011.4
2023-02-23T22:05:20.308Z,1011.4
2023-02-23T22:15:22.407Z,1011.4
2023-02-23T22:22:02.025Z,1011.4
2023-02-23T22:25:37.420Z,1011.4
2023-02-23T22:31:56.187Z,1011.4
2023-02-23T22:35:50.225Z,1011.4
2023-02-23T22:40:56.622Z,1011.4
2023-02-23T22:52:21.506Z,1011.3
2023-02-23T22:52:23.528Z,1011.4
2023-02-23T22:56:35.826Z,1011.3
2023-02-23T23:02:34.243Z,1011.3
2023-02-23T23:06:48.519Z,1011.1
2023-02-23T23:12:38.182Z,1011.1
2023-02-23T23:17:45.617Z,1011.1
2023-02-23T23:23:36.077Z,1011.0
2023-02-23T23:27:58.402Z,1010.9
2023-02-23T23:33:04.898Z,1010.9
2023-02-23T23:38:11.272Z,1010.8
2023-02-23T23:43:17.683Z,1010.8
2023-02-23T23:48:48.096Z,1010.7
2023-02-23T23:53:30.414Z,1010.6
2023-02-23T23:58:36.830Z,1010.5
